Gainesville, GA

10:21 PM EDT on July 27, 2017 (GMT -0400)
Gilmer Memorial

Weather History for KGVL - March, 2014

Change the Weather History Date:

Sunday, March 16, 2014

  Actual Average Record
Temperature  
Mean Temperature 53 °F 53 °F  
Max Temperature 59 °F 63 °F 83 °F (2015)
Min Temperature 47 °F 43 °F 17 °F (1993)
Degree Days  
Heating Degree Days 12 12  
Month to date heating degree days 231 231  
Since 1 July heating degree days 2900 2695  
Cooling Degree Days 0 0  
Month to date cooling degree days 0 0  
Year to date cooling degree days 0 0  
Growing Degree Days 2 (Base 50)    
Moisture  
Dew Point 48 °F    
Average Humidity 74    
Maximum Humidity 96    
Minimum Humidity 51    
Precipitation  
Precipitation 1.29 in 0.20 in 3.64 in (1976)
Month to date precipitation 2.52 2.99  
Year to date precipitation 8.51 12.89  
Snow  
Snow 0.00 in - - ()
Month to date snowfall 0.0  
Since 1 July snowfall T  
Snow Depth -    
Sea Level Pressure  
Sea Level Pressure 29.79 in    
Wind  
Wind Speed 8 mph (East)    
Max Wind Speed 18 mph    
Max Gust Speed 22 mph    
Visibility 3 miles    
Events Rain    
T = Trace of Precipitation, MM = Missing Value Source: NWS Daily Summary

Daily Weather History Graph

Daily Weather History Graph

Search for Another Location

Airport or City:

Trip Planner

Search our weather history database for the weather conditions in past years. The results will help you decide how hot, cold, wet, or windy it might be!

Date:

Astronomy

Mar. 16, 2014 Rise Set
Actual Time 7:44 AM EDT 7:43 PM EDT
Civil Twilight 7:19 AM EDT 8:08 PM EDT
Nautical Twilight 6:50 AM EDT 8:38 PM EDT
Astronomical Twilight 6:21 AM EDT 9:07 PM EDT
Moon 7:58 PM EDT (3/16) 7:28 AM EDT (3/16)
Length of Visible Light 12h 49m
Length of Day
11h 59m
Full, 100% of the Moon is Illuminated
Mar 16
Full
Mar 16
Full
Mar 23
Last Quarter
Mar 30
New
Apr 7
First Quarter

Hourly Weather History & Observations

Time (EDT) Temp. Dew Point Humidity Pressure Visibility Wind Dir Wind Speed Gust Speed Precip Events Conditions
12:53 AM 57.9 °F 39.9 °F 51% 30.00 in 10.0 mi WSW 3.5 mph - N/A   Clear
1:53 AM 57.9 °F 41.0 °F 53% 29.99 in 10.0 mi SW 3.5 mph - N/A   Clear
2:53 AM 55.9 °F 41.0 °F 57% 29.97 in 10.0 mi SSE 4.6 mph - N/A   Scattered Clouds
3:53 AM 55.9 °F 41.0 °F 57% 29.95 in 10.0 mi SSE 4.6 mph - N/A   Overcast
4:53 AM 52.0 °F 45.0 °F 77% 29.92 in 8.0 mi ESE 3.5 mph - 0.01 in Rain Light Rain
5:53 AM 51.1 °F 46.9 °F 86% 29.91 in 5.0 mi East 3.5 mph - 0.04 in Rain Light Rain
6:33 AM 50.0 °F 46.9 °F 89% 29.91 in 4.0 mi East 6.9 mph - 0.07 in Rain Light Rain
6:53 AM 50.0 °F 46.9 °F 89% 29.88 in 4.0 mi East 9.2 mph - 0.09 in Rain Light Rain
7:02 AM 50.0 °F 46.9 °F 89% 29.90 in 4.0 mi East 8.1 mph - 0.01 in Rain Light Rain
7:11 AM 50.0 °F 48.0 °F 93% 29.91 in 3.0 mi ESE 6.9 mph - 0.03 in Rain Rain
7:30 AM 50.0 °F 48.0 °F 93% 29.91 in 3.0 mi East 9.2 mph - 0.06 in Rain Rain
7:53 AM 50.0 °F 48.0 °F 93% 29.90 in 3.0 mi ESE 4.6 mph - 0.11 in Rain Rain
8:02 AM 50.0 °F 48.0 °F 93% 29.91 in 2.5 mi East 6.9 mph - 0.04 in Rain Rain
8:12 AM 50.0 °F 48.0 °F 93% 29.90 in 2.5 mi East 8.1 mph - 0.07 in Rain Rain
8:40 AM 50.0 °F 48.0 °F 93% 29.88 in 2.0 mi East 11.5 mph - 0.21 in Rain Heavy Rain
8:53 AM 50.0 °F 48.0 °F 93% 29.87 in 2.0 mi East 12.7 mph - 0.28 in Rain Heavy Rain
9:12 AM 50.0 °F 48.0 °F 93% 29.90 in 2.5 mi East 9.2 mph - 0.06 in Rain Rain
9:30 AM 50.0 °F 48.0 °F 93% 29.90 in 2.0 mi East 9.2 mph - 0.17 in Rain Heavy Rain
9:40 AM 50.0 °F 48.0 °F 93% 29.90 in 1.5 mi East 11.5 mph - 0.22 in Rain Heavy Rain
9:49 AM 50.0 °F 48.2 °F 94% 29.89 in 1.5 mi East 13.8 mph - 0.27 in Rain Heavy Rain
9:53 AM 50.0 °F 48.0 °F 93% 29.88 in 1.5 mi East 12.7 mph - 0.29 in Rain Heavy Rain
10:10 AM 50.0 °F 48.0 °F 93% 29.88 in 2.0 mi East 12.7 mph - 0.07 in Rain Rain
10:48 AM 50.0 °F 48.2 °F 94% 29.87 in 2.5 mi East 13.8 mph - 0.16 in Rain Rain
10:53 AM 50.0 °F 48.0 °F 93% 29.83 in 2.0 mi East 13.8 mph 21.9 mph 0.18 in Rain Rain
11:07 AM 50.0 °F 48.0 °F 93% 29.83 in 1.8 mi East 12.7 mph 21.9 mph 0.04 in Rain Rain
11:19 AM 50.0 °F 48.0 °F 93% 29.83 in 2.5 mi East 11.5 mph 19.6 mph 0.06 in Rain Rain
11:28 AM 50.0 °F 48.0 °F 93% 29.83 in 4.0 mi ESE 11.5 mph 19.6 mph 0.07 in Rain Light Rain
11:53 AM 50.0 °F 48.0 °F 93% 29.80 in 3.0 mi East 13.8 mph - 0.09 in Rain Light Rain
12:02 PM 51.1 °F 48.9 °F 92% 29.82 in 4.0 mi Variable 6.9 mph 21.9 mph 0.01 in Rain Light Rain
12:24 PM 51.1 °F 48.9 °F 92% 29.82 in 5.0 mi ENE 5.8 mph - 0.01 in Rain Light Rain
12:53 PM 51.1 °F 48.9 °F 92% 29.78 in 4.0 mi Variable 4.6 mph - 0.02 in Rain Light Rain
1:01 PM 51.1 °F 48.9 °F 92% 29.78 in 2.0 mi East 10.4 mph 18.4 mph 0.02 in Rain Rain
1:13 PM 51.1 °F 48.9 °F 92% 29.78 in 3.0 mi East 6.9 mph - 0.03 in Rain Light Rain
1:53 PM 51.1 °F 50.0 °F 96% 29.75 in 5.0 mi East 9.2 mph - 0.03 in Rain Light Rain
2:17 PM 52.0 °F 50.0 °F 93% 29.75 in 2.0 mi East 10.4 mph - 0.00 in   Overcast
2:35 PM 51.1 °F 50.0 °F 96% 29.74 in 2.5 mi East 11.5 mph - 0.00 in   Overcast
2:51 PM 51.8 °F 50.0 °F 94% 29.73 in 1.8 mi East 11.5 mph - 0.00 in   Overcast
2:53 PM 51.1 °F 50.0 °F 96% 29.71 in 1.5 mi East 11.5 mph - 0.00 in   Overcast
3:02 PM 51.1 °F 50.0 °F 96% 29.72 in 0.8 mi ENE 10.4 mph - N/A   Overcast
3:46 PM 51.1 °F 50.0 °F 96% 29.72 in 1.2 mi East 10.4 mph - 0.02 in Rain Light Rain
3:53 PM 51.1 °F 50.0 °F 96% 29.70 in 1.8 mi ENE 9.2 mph - 0.02 in Rain Light Rain
4:11 PM 51.1 °F 50.0 °F 96% 29.71 in 2.0 mi ENE 10.4 mph - 0.02 in Rain Light Rain
4:18 PM 51.1 °F 50.0 °F 96% 29.71 in 3.0 mi ENE 8.1 mph - 0.02 in Rain Light Rain
4:33 PM 51.1 °F 50.0 °F 96% 29.72 in 2.5 mi ENE 6.9 mph - 0.02 in Rain Light Rain
4:46 PM 51.1 °F 48.9 °F 92% 29.71 in 2.0 mi East 9.2 mph - 0.02 in Rain Light Rain
4:53 PM 51.1 °F 50.0 °F 96% 29.70 in 2.0 mi ENE 5.8 mph - 0.02 in Rain Light Rain
5:07 PM 51.1 °F 48.9 °F 92% 29.71 in 3.0 mi NE 5.8 mph - 0.01 in   Overcast
5:15 PM 51.1 °F 48.9 °F 92% 29.71 in 2.0 mi ENE 6.9 mph - 0.01 in Rain Light Rain
5:19 PM 51.1 °F 48.9 °F 92% 29.71 in 1.5 mi NE 4.6 mph - 0.02 in Rain Light Rain
5:30 PM 51.1 °F 48.9 °F 92% 29.69 in 2.0 mi ENE 9.2 mph - 0.02 in Rain Light Rain
5:35 PM 51.1 °F 48.9 °F 92% 29.68 in 3.0 mi ENE 10.4 mph - 0.03 in Rain Light Rain
5:46 PM 50.0 °F 48.9 °F 96% 29.68 in 2.5 mi East 11.5 mph - 0.03 in Rain Light Rain
5:53 PM 51.1 °F 48.9 °F 92% 29.68 in 3.0 mi East 12.7 mph 17.3 mph 0.03 in Rain Light Rain
6:14 PM 50.0 °F 48.0 °F 93% 29.69 in 4.0 mi East 10.4 mph - 0.00 in   Overcast
6:22 PM 50.0 °F 48.0 °F 93% 29.68 in 2.0 mi East 11.5 mph - 0.00 in Rain Light Rain
6:26 PM 50.0 °F 48.0 °F 93% 29.69 in 1.5 mi East 10.4 mph - 0.00 in Rain Light Rain
6:36 PM 50.0 °F 48.0 °F 93% 29.70 in 1.8 mi ENE 6.9 mph - 0.01 in Rain Light Rain
6:53 PM 50.0 °F 48.0 °F 93% 29.69 in 1.8 mi NE 9.2 mph - 0.01 in Rain Light Rain
7:32 PM 48.9 °F 46.9 °F 93% 29.71 in 2.5 mi ENE 8.1 mph - 0.01 in   Overcast
7:50 PM 48.2 °F 46.4 °F 93% 29.73 in 2.0 mi ENE 6.9 mph - 0.01 in Rain Light Rain
7:51 PM 48.9 °F 46.9 °F 93% 29.72 in 2.0 mi NE 6.9 mph - 0.01 in Rain Light Rain
8:13 PM 48.9 °F 46.9 °F 93% 29.74 in 2.5 mi East 6.9 mph - 0.00 in   Overcast
8:53 PM 48.9 °F 46.9 °F 93% 29.74 in 2.0 mi NE 4.6 mph - 0.01 in Rain Light Rain
9:04 PM 48.9 °F 46.9 °F 93% 29.75 in 2.5 mi ENE 6.9 mph - 0.00 in Rain Light Rain
9:48 PM 48.2 °F 46.4 °F 93% 29.75 in 3.0 mi ENE 6.9 mph - 0.00 in   Overcast
9:53 PM 48.9 °F 46.9 °F 93% 29.75 in 3.0 mi ENE 4.6 mph - 0.00 in   Overcast
10:53 PM 48.9 °F 46.9 °F 93% 29.74 in 3.0 mi East 6.9 mph - N/A   Overcast
11:00 PM 48.9 °F 46.9 °F 93% 29.75 in 2.5 mi ENE 8.1 mph - N/A   Overcast
11:07 PM 48.9 °F 46.9 °F 93% 29.74 in 2.0 mi ENE 10.4 mph - N/A   Overcast
11:23 PM 48.9 °F 46.9 °F 93% 29.74 in 1.8 mi NE 8.1 mph - N/A   Overcast
11:43 PM 48.9 °F 46.9 °F 93% 29.73 in 1.2 mi East 9.2 mph - N/A   Overcast
11:53 PM 48.0 °F 46.9 °F 96% 29.73 in 1.0 mi East 9.2 mph - N/A   Overcast